Time;durP1;ratioP1;P1;durP2;ratioP2;P2;SDS_P1;SDS_P2;PMS_P1;PMS_P2;Temp;Humidity;BMP_temperature;BMP_pressure;BME280_temperature;BME280_humidity;BME280_pressure;Samples;Min_cycle;Max_cycle;Signal;HPM_P1;HPM_P2
2023/06/01 00:02:03;;;;;;;4.72;2.88;;;19.70;99.90;;;;;;5024856;28;20270;-73
2023/06/01 00:04:29;;;;;;;7.85;2.50;;;19.70;99.90;;;;;;5011291;28;20289;-73
2023/06/01 00:06:54;;;;;;;6.18;3.28;;;19.70;99.90;;;;;;5010320;28;20212;-72
2023/06/01 00:09:20;;;;;;;3.45;1.92;;;19.60;99.90;;;;;;5027605;28;20216;-72
2023/06/01 00:11:46;;;;;;;7.60;2.40;;;19.60;99.90;;;;;;5011185;28;20200;-73
2023/06/01 00:14:12;;;;;;;4.65;2.40;;;19.50;99.90;;;;;;5022859;28;20208;-71
2023/06/01 00:16:37;;;;;;;3.22;2.03;;;19.30;99.90;;;;;;5024906;28;20232;-73
2023/06/01 00:19:03;;;;;;;6.72;3.05;;;19.40;99.90;;;;;;5023970;28;20208;-73
2023/06/01 00:21:31;;;;;;;7.65;4.88;;;19.40;99.90;;;;;;5024791;28;20244;-72
2023/06/01 00:23:57;;;;;;;4.38;2.20;;;19.40;99.90;;;;;;5021723;28;20251;-73
2023/06/01 00:26:23;;;;;;;4.72;2.83;;;19.50;99.90;;;;;;5023849;28;20209;-73
2023/06/01 00:28:49;;;;;;;5.97;2.70;;;19.50;99.90;;;;;;5019628;28;20284;-72
2023/06/01 00:31:15;;;;;;;9.27;3.17;;;19.50;99.90;;;;;;5011758;28;20208;-72
2023/06/01 00:33:40;;;;;;;7.00;2.40;;;19.40;99.90;;;;;;5001152;28;20212;-73
2023/06/01 00:36:06;;;;;;;9.57;4.57;;;19.50;99.90;;;;;;5021837;28;20184;-73
2023/06/01 00:38:32;;;;;;;3.72;2.00;;;19.50;99.90;;;;;;5015991;28;20263;-72
2023/06/01 00:40:58;;;;;;;4.13;2.42;;;19.30;99.90;;;;;;5014693;28;20300;-73
2023/06/01 00:43:23;;;;;;;6.18;3.28;;;19.10;99.90;;;;;;5031515;28;20262;-72
2023/06/01 00:45:49;;;;;;;6.57;2.58;;;19.20;99.90;;;;;;5029525;28;20254;-71
2023/06/01 00:48:15;;;;;;;5.20;2.72;;;19.10;99.90;;;;;;5030800;28;20255;-74
2023/06/01 00:50:42;;;;;;;5.20;2.45;;;18.90;99.90;;;;;;5031779;28;20191;-73
2023/06/01 00:53:14;;;;;;;6.35;2.42;;;19.00;99.90;;;;;;5010899;28;20213;-73
2023/06/01 00:55:40;;;;;;;5.57;2.45;;;18.80;99.90;;;;;;5027810;28;20216;-73
2023/06/01 00:58:06;;;;;;;3.35;2.22;;;18.90;99.90;;;;;;5026960;28;20216;-72
2023/06/01 01:00:32;;;;;;;5.90;2.13;;;18.80;99.90;;;;;;5027717;28;20216;-73
2023/06/01 01:03:00;;;;;;;5.15;2.20;;;18.70;99.90;;;;;;5013324;28;20347;-73
2023/06/01 01:05:26;;;;;;;6.05;2.03;;;18.50;99.90;;;;;;5025695;28;20208;-73
2023/06/01 01:08:15;;;;;;;5.88;2.53;;;18.70;99.90;;;;;;5026310;28;20594;-72
2023/06/01 01:10:58;;;;;;;3.55;2.10;;;18.60;99.90;;;;;;5025698;28;20631;-72
2023/06/01 01:13:37;;;;;;;3.40;2.08;;;18.70;99.90;;;;;;5007182;28;20244;-73
2023/06/01 01:16:56;;;;;;;8.45;2.45;;;18.60;99.90;;;;;;5030344;28;20665;-73
2023/06/01 01:19:54;;;;;;;3.35;2.30;;;18.40;99.90;;;;;;4986913;28;20625;-72
2023/06/01 01:23:00;;;;;;;4.65;2.30;;;18.50;99.90;;;;;;5006479;28;20714;-72
2023/06/01 01:25:52;;;;;;;3.08;2.30;;;18.50;99.90;;;;;;5025790;28;20557;-73
2023/06/01 01:28:48;;;;;;;5.40;2.30;;;18.20;99.90;;;;;;5027253;28;20208;-72
2023/06/01 01:31:18;;;;;;;7.28;2.08;;;18.00;99.90;;;;;;4978523;28;20216;-72
2023/06/01 01:33:46;;;;;;;8.75;2.40;;;18.00;99.90;;;;;;5013173;28;20216;-73
2023/06/01 01:36:12;;;;;;;3.28;2.10;;;18.00;99.90;;;;;;5026880;28;20199;-71
2023/06/01 01:38:38;;;;;;;8.00;2.75;;;18.00;99.90;;;;;;5029759;28;20658;-73
2023/06/01 01:41:04;;;;;;;5.57;2.42;;;17.80;99.90;;;;;;5024687;28;20201;-73
2023/06/01 01:43:31;;;;;;;4.43;2.75;;;17.90;99.90;;;;;;5025810;28;20212;-72
2023/06/01 01:46:49;;;;;;;3.60;2.10;;;17.80;99.90;;;;;;5022428;28;20215;-72
2023/06/01 01:49:24;;;;;;;5.85;2.45;;;17.50;99.90;;;;;;5014607;28;20203;-73
2023/06/01 01:52:16;;;;;;;4.05;2.15;;;17.70;99.90;;;;;;5019715;28;20227;-72
2023/06/01 01:54:43;;;;;;;5.43;2.13;;;17.40;99.90;;;;;;5003533;28;20722;-72
2023/06/01 01:57:11;;;;;;;5.78;2.67;;;17.60;99.90;;;;;;5058615;22;20313;-74
2023/06/01 01:59:37;;;;;;;3.75;2.50;;;17.60;99.90;;;;;;5054250;28;20191;-76
2023/06/01 02:02:03;;;;;;;4.22;2.35;;;17.40;99.90;;;;;;5033997;28;20762;-76
2023/06/01 02:04:30;;;;;;;4.90;2.67;;;17.50;99.90;;;;;;5056646;28;20228;-76
2023/06/01 02:06:55;;;;;;;6.72;2.53;;;17.30;99.90;;;;;;5055021;28;20595;-75
2023/06/01 02:09:21;;;;;;;5.18;2.83;;;17.30;99.90;;;;;;5055031;28;20208;-76
2023/06/01 02:11:47;;;;;;;9.93;3.10;;;17.30;99.90;;;;;;5058771;28;20179;-76
2023/06/01 02:14:12;;;;;;;7.47;2.90;;;16.90;99.90;;;;;;5036514;28;20222;-74
2023/06/01 02:16:38;;;;;;;7.80;3.67;;;16.80;99.90;;;;;;5041538;28;20693;-76
2023/06/01 02:19:04;;;;;;;8.10;3.20;;;16.90;99.90;;;;;;5057067;28;20215;-76
2023/06/01 02:21:30;;;;;;;9.85;3.65;;;16.80;99.90;;;;;;5061262;28;20563;-76
2023/06/01 02:24:04;;;;;;;7.25;3.30;;;16.60;99.90;;;;;;5036233;28;20218;-74
2023/06/01 02:26:30;;;;;;;5.03;3.45;;;16.40;99.90;;;;;;5040931;28;20206;-75
2023/06/01 02:28:56;;;;;;;6.68;3.58;;;16.80;99.90;;;;;;5058303;28;20294;-75
2023/06/01 02:31:22;;;;;;;5.00;3.35;;;16.40;99.90;;;;;;5055620;28;20247;-76
2023/06/01 02:33:48;;;;;;;4.50;3.25;;;16.30;99.90;;;;;;5054555;28;20704;-76
2023/06/01 02:36:16;;;;;;;7.18;3.80;;;16.20;99.90;;;;;;5050733;28;20235;-73
2023/06/01 02:38:42;;;;;;;6.55;3.10;;;16.20;99.90;;;;;;5053030;28;20195;-76
2023/06/01 02:41:08;;;;;;;7.47;3.63;;;16.40;99.90;;;;;;5051847;28;20208;-74
2023/06/01 02:43:35;;;;;;;8.35;4.10;;;16.50;99.90;;;;;;5054232;28;20216;-76
2023/06/01 02:46:01;;;;;;;6.63;3.40;;;16.20;99.90;;;;;;5032522;28;20203;-74
2023/06/01 02:48:27;;;;;;;8.95;4.18;;;16.20;99.90;;;;;;5051921;28;20566;-74
2023/06/01 02:50:53;;;;;;;7.82;3.90;;;16.00;99.90;;;;;;5041628;28;20193;-74
2023/06/01 02:53:19;;;;;;;6.75;3.60;;;16.20;99.90;;;;;;5056525;28;20691;-75
2023/06/01 02:55:44;;;;;;;7.20;4.13;;;15.90;99.90;;;;;;5057389;28;20219;-74
2023/06/01 02:58:16;;;;;;;9.15;3.67;;;16.20;99.90;;;;;;5055199;28;20687;-74
2023/06/01 03:00:42;;;;;;;8.55;4.10;;;16.00;99.90;;;;;;5043505;28;20202;-74
2023/06/01 03:03:08;;;;;;;7.60;4.03;;;16.20;99.90;;;;;;5053200;28;20215;-74
2023/06/01 03:05:35;;;;;;;9.73;4.32;;;15.90;99.90;;;;;;5061721;28;20170;-74
2023/06/01 03:08:01;;;;;;;8.73;3.65;;;16.20;99.90;;;;;;5043716;28;20849;-73
2023/06/01 03:10:27;;;;;;;7.47;4.47;;;16.30;99.90;;;;;;5054452;28;20327;-74
2023/06/01 03:12:52;;;;;;;9.55;4.82;;;16.30;99.90;;;;;;5044303;28;20297;-74
2023/06/01 03:15:18;;;;;;;6.63;4.63;;;15.80;99.90;;;;;;5047741;28;20238;-74
2023/06/01 03:17:44;;;;;;;11.90;5.05;;;15.60;99.90;;;;;;5053082;28;20182;-74
2023/06/01 03:20:14;;;;;;;9.02;4.45;;;15.70;99.90;;;;;;5039575;28;20204;-75
2023/06/01 03:22:44;;;;;;;6.85;4.25;;;15.60;99.90;;;;;;5043006;28;20701;-74
2023/06/01 03:25:12;;;;;;;11.60;4.80;;;15.80;99.90;;;;;;5051084;28;20211;-74
2023/06/01 03:27:38;;;;;;;10.73;5.22;;;15.60;99.90;;;;;;5038974;28;20214;-74
2023/06/01 03:30:09;;;;;;;12.65;5.50;;;15.90;99.90;;;;;;5056091;28;20362;-74
2023/06/01 03:32:36;;;;;;;11.40;6.07;;;16.40;99.90;;;;;;5058763;28;20175;-75
2023/06/01 03:35:03;;;;;;;8.63;4.70;;;16.60;99.90;;;;;;5038584;28;20238;-74
2023/06/01 03:37:29;;;;;;;9.63;5.38;;;16.60;99.90;;;;;;5058898;28;20249;-75
2023/06/01 03:39:55;;;;;;;11.52;5.50;;;16.70;99.90;;;;;;5058215;28;20705;-75
2023/06/01 03:42:20;;;;;;;13.52;5.30;;;17.30;99.90;;;;;;5040843;28;20208;-74
2023/06/01 03:44:46;;;;;;;11.10;5.72;;;17.50;99.90;;;;;;5058735;28;20304;-74
2023/06/01 03:47:13;;;;;;;12.38;4.97;;;17.60;99.90;;;;;;5041813;28;20210;-74
2023/06/01 03:49:39;;;;;;;7.18;4.93;;;17.80;99.90;;;;;;5058035;28;20211;-75
2023/06/01 03:52:05;;;;;;;11.00;5.22;;;18.70;99.90;;;;;;5052008;28;20278;-76
2023/06/01 03:54:31;;;;;;;9.25;5.05;;;18.70;99.90;;;;;;5037860;28;20215;-75
2023/06/01 03:56:57;;;;;;;10.70;5.38;;;19.20;99.90;;;;;;5043446;28;20256;-75
2023/06/01 03:59:22;;;;;;;11.93;5.50;;;19.80;99.90;;;;;;5049008;28;20234;-75
2023/06/01 04:01:49;;;;;;;11.57;4.97;;;19.90;99.90;;;;;;5043795;28;20199;-75
2023/06/01 04:04:16;;;;;;;11.75;4.72;;;19.80;99.90;;;;;;5048995;28;20223;-74
2023/06/01 04:06:44;;;;;;;10.70;5.38;;;20.00;99.90;;;;;;5043491;28;20214;-74
2023/06/01 04:09:11;;;;;;;13.20;5.30;;;19.20;99.90;;;;;;5036158;28;20176;-75
2023/06/01 04:11:39;;;;;;;10.90;5.50;;;19.30;99.90;;;;;;5046539;28;20175;-75
2023/06/01 04:14:05;;;;;;;9.15;5.40;;;19.10;99.90;;;;;;5058969;28;20282;-74
2023/06/01 04:16:31;;;;;;;10.50;5.50;;;19.70;99.90;;;;;;5058578;28;20291;-75
2023/06/01 04:18:57;;;;;;;10.25;5.97;;;19.00;99.90;;;;;;5063038;28;20294;-74
2023/06/01 04:21:23;;;;;;;13.07;6.40;;;18.70;99.90;;;;;;5062039;28;20204;-74
2023/06/01 04:23:50;;;;;;;10.93;6.72;;;18.20;99.90;;;;;;5045234;28;20198;-75
2023/06/01 04:26:17;;;;;;;11.27;6.10;;;17.20;99.90;;;;;;5066808;28;20215;-75
2023/06/01 04:28:45;;;;;;;12.60;6.45;;;17.10;99.90;;;;;;5043659;28;20214;-74
2023/06/01 04:31:18;;;;;;;15.07;7.45;;;17.00;99.90;;;;;;5054606;28;20195;-74
2023/06/01 04:33:44;;;;;;;12.55;7.35;;;16.30;99.90;;;;;;5055663;28;20677;-74
2023/06/01 04:36:13;;;;;;;10.52;7.18;;;16.40;99.90;;;;;;5043690;28;20289;-73
2023/06/01 04:38:42;;;;;;;16.63;7.97;;;15.90;99.90;;;;;;5045095;28;20257;-75
2023/06/01 04:41:10;;;;;;;13.85;8.25;;;16.10;99.90;;;;;;5059152;28;20241;-75
2023/06/01 04:43:39;;;;;;;17.88;9.05;;;16.00;99.90;;;;;;5044229;28;20782;-74
2023/06/01 04:46:05;;;;;;;15.52;8.07;;;15.60;99.90;;;;;;5057600;28;20276;-75
2023/06/01 04:48:31;;;;;;;12.35;8.02;;;15.50;99.90;;;;;;5040413;28;20657;-75
2023/06/01 04:51:01;;;;;;;19.80;9.75;;;15.30;99.90;;;;;;5045441;28;20258;-74
2023/06/01 04:53:26;;;;;;;16.48;10.05;;;14.90;99.90;;;;;;5059130;28;20216;-75
2023/06/01 04:55:53;;;;;;;16.55;9.40;;;14.80;99.90;;;;;;5038411;28;20600;-75
2023/06/01 04:58:19;;;;;;;17.27;8.65;;;14.90;99.90;;;;;;5065230;28;20621;-74
2023/06/01 05:00:46;;;;;;;14.73;8.63;;;14.90;99.90;;;;;;5044568;28;20207;-74
2023/06/01 05:03:12;;;;;;;14.13;8.32;;;14.60;99.90;;;;;;5065676;28;20290;-74
2023/06/01 05:05:37;;;;;;;13.57;8.65;;;14.50;99.90;;;;;;5034809;28;20730;-74
2023/06/01 05:08:03;;;;;;;15.00;9.13;;;14.10;99.90;;;;;;5056708;28;20215;-74
2023/06/01 05:10:30;;;;;;;16.30;9.68;;;14.10;99.90;;;;;;5054141;28;20231;-74
2023/06/01 05:12:55;;;;;;;16.20;8.60;;;14.10;99.90;;;;;;5050755;28;20218;-74
2023/06/01 05:15:21;;;;;;;15.93;8.43;;;14.20;99.90;;;;;;5026873;28;20219;-73
2023/06/01 05:17:47;;;;;;;15.38;8.43;;;14.30;99.90;;;;;;5046354;28;20189;-75
2023/06/01 05:20:13;;;;;;;18.63;8.23;;;14.20;99.90;;;;;;5056537;28;20308;-73
2023/06/01 05:22:39;;;;;;;15.53;8.43;;;14.50;99.90;;;;;;5056911;28;20204;-75
2023/06/01 05:25:08;;;;;;;13.30;8.33;;;14.20;99.90;;;;;;5039790;28;20199;-75
2023/06/01 05:27:34;;;;;;;14.20;7.75;;;14.20;99.90;;;;;;5030315;28;20691;-75
2023/06/01 05:30:00;;;;;;;13.00;8.00;;;13.90;99.90;;;;;;5060141;28;20249;-75
2023/06/01 05:32:26;;;;;;;16.55;8.10;;;14.20;99.90;;;;;;5041300;28;20267;-74
2023/06/01 05:34:52;;;;;;;12.37;7.87;;;14.40;99.90;;;;;;5060441;28;20210;-74
2023/06/01 05:37:17;;;;;;;17.83;7.88;;;14.40;99.90;;;;;;5059759;28;20216;-74
2023/06/01 05:39:43;;;;;;;13.95;7.47;;;14.40;99.90;;;;;;5066298;28;20290;-75
2023/06/01 05:42:09;;;;;;;13.60;6.88;;;14.60;99.90;;;;;;5060382;28;20251;-74
2023/06/01 05:44:34;;;;;;;11.23;6.82;;;14.70;99.90;;;;;;5060237;28;20203;-74
2023/06/01 05:47:00;;;;;;;10.60;6.50;;;14.70;99.90;;;;;;5054931;28;20701;-74
2023/06/01 05:49:25;;;;;;;15.68;6.65;;;14.80;99.90;;;;;;5053354;28;20350;-75
2023/06/01 05:51:51;;;;;;;10.80;5.72;;;15.10;99.90;;;;;;5056874;28;20195;-75
2023/06/01 05:54:17;;;;;;;15.75;6.82;;;14.80;99.90;;;;;;5035076;28;20262;-75
2023/06/01 05:56:42;;;;;;;13.70;6.43;;;15.20;99.90;;;;;;5054813;28;20242;-75
2023/06/01 05:59:08;;;;;;;11.95;6.20;;;15.20;99.90;;;;;;5043832;28;20199;-75
2023/06/01 06:01:35;;;;;;;9.95;5.88;;;15.20;99.90;;;;;;5055295;28;20283;-75
2023/06/01 06:04:01;;;;;;;10.18;5.25;;;15.20;99.90;;;;;;5039028;28;20298;-74
2023/06/01 06:06:27;;;;;;;13.00;6.05;;;15.10;99.90;;;;;;5056210;28;20295;-74
2023/06/01 06:08:52;;;;;;;9.35;6.00;;;15.30;99.90;;;;;;5042353;28;20178;-75
2023/06/01 06:11:18;;;;;;;18.92;11.02;;;15.20;99.90;;;;;;5056422;28;20208;-74
2023/06/01 06:13:44;;;;;;;8.98;5.25;;;15.30;99.90;;;;;;5043299;28;20198;-75
2023/06/01 06:16:10;;;;;;;8.50;4.53;;;15.30;99.90;;;;;;5034769;28;20287;-73
2023/06/01 06:18:35;;;;;;;13.25;6.10;;;15.50;99.90;;;;;;5045063;28;20214;-74
2023/06/01 06:21:01;;;;;;;8.85;6.35;;;15.40;99.90;;;;;;5045871;28;20180;-75
2023/06/01 06:23:27;;;;;;;12.68;5.72;;;14.70;99.90;;;;;;5035295;28;20207;-74
2023/06/01 06:25:53;;;;;;;12.45;7.22;;;15.30;99.90;;;;;;5052497;28;20624;-74
2023/06/01 06:28:18;;;;;;;10.80;6.05;;;15.80;99.90;;;;;;5051459;28;20235;-74
2023/06/01 06:30:44;;;;;;;10.38;5.07;;;16.10;99.90;;;;;;5052995;28;20211;-74
2023/06/01 06:33:10;;;;;;;11.57;6.55;;;15.40;99.90;;;;;;5054397;28;20175;-74
2023/06/01 06:35:37;;;;;;;18.80;6.97;;;15.70;99.90;;;;;;5056499;28;20207;-74
2023/06/01 06:38:02;;;;;;;14.85;6.35;;;15.70;99.90;;;;;;5057285;28;20579;-73
2023/06/01 06:40:28;;;;;;;12.95;6.22;;;15.60;99.90;;;;;;5035067;28;20204;-73
2023/06/01 06:42:53;;;;;;;11.77;5.90;;;15.30;99.90;;;;;;5040607;28;20218;-73
2023/06/01 06:45:19;;;;;;;10.18;5.57;;;14.90;99.90;;;;;;5048018;28;20235;-73
2023/06/01 06:47:48;;;;;;;8.82;6.15;;;15.10;99.90;;;;;;5060382;28;20899;-74
2023/06/01 06:50:14;;;;;;;8.88;5.40;;;15.50;99.90;;;;;;5055708;28;20191;-74
2023/06/01 06:52:40;;;;;;;11.30;5.70;;;16.30;99.90;;;;;;5053695;28;20687;-74
2023/06/01 06:55:06;;;;;;;10.48;5.22;;;16.60;99.90;;;;;;5059495;28;20750;-74
2023/06/01 06:57:33;;;;;;;8.90;5.30;;;16.60;99.90;;;;;;5056479;28;20219;-74
2023/06/01 06:59:59;;;;;;;10.77;5.43;;;17.70;99.90;;;;;;5044251;28;20179;-74
2023/06/01 07:02:26;;;;;;;11.98;4.75;;;17.80;99.90;;;;;;5054439;28;20186;-74
2023/06/01 07:04:51;;;;;;;7.65;4.50;;;18.50;99.90;;;;;;5040285;28;20254;-74
2023/06/01 07:07:17;;;;;;;9.45;5.22;;;18.90;99.90;;;;;;5052825;28;20253;-74
2023/06/01 07:09:43;;;;;;;8.27;4.35;;;18.50;99.90;;;;;;5054820;28;20581;-74
2023/06/01 07:12:08;;;;;;;9.02;5.10;;;18.30;99.90;;;;;;5055204;28;20187;-74
2023/06/01 07:14:34;;;;;;;8.15;4.72;;;19.00;99.90;;;;;;5050587;28;20199;-74
2023/06/01 07:17:00;;;;;;;9.18;5.05;;;19.50;99.90;;;;;;5057050;28;20336;-74
2023/06/01 07:19:32;;;;;;;9.40;4.57;;;18.80;99.90;;;;;;5038619;28;20729;-74
2023/06/01 07:22:01;;;;;;;10.20;4.80;;;18.80;99.90;;;;;;5053584;28;20276;-74
2023/06/01 07:24:27;;;;;;;10.30;6.28;;;18.70;99.90;;;;;;5053025;28;20215;-75
2023/06/01 07:26:53;;;;;;;9.00;4.93;;;17.80;99.90;;;;;;5058798;28;20191;-74
2023/06/01 07:29:20;;;;;;;11.63;4.97;;;18.20;99.90;;;;;;5037014;28;20216;-74
2023/06/01 07:31:46;;;;;;;11.50;5.30;;;18.50;99.90;;;;;;5038302;28;20622;-75
2023/06/01 07:34:12;;;;;;;9.55;5.10;;;18.10;99.90;;;;;;5038349;28;20242;-74
2023/06/01 07:36:40;;;;;;;10.40;5.07;;;18.30;99.90;;;;;;5042749;28;20206;-74
2023/06/01 07:39:09;;;;;;;15.30;6.18;;;18.80;99.90;;;;;;5058897;28;20203;-75
2023/06/01 07:41:35;;;;;;;8.43;5.90;;;19.20;99.90;;;;;;5047621;28;20169;-74
2023/06/01 07:44:00;;;;;;;9.80;5.57;;;18.90;99.90;;;;;;5051757;28;20261;-75
2023/06/01 07:46:26;;;;;;;12.30;5.57;;;18.30;99.90;;;;;;5050177;28;20314;-75
2023/06/01 07:48:52;;;;;;;8.00;4.35;;;18.80;99.90;;;;;;5052771;28;20766;-75
2023/06/01 07:51:17;;;;;;;8.95;4.93;;;20.00;99.90;;;;;;5053218;28;20258;-75
2023/06/01 07:53:43;;;;;;;10.30;4.40;;;20.50;99.90;;;;;;5054496;28;20176;-76
2023/06/01 07:56:09;;;;;;;11.43;5.57;;;19.50;99.90;;;;;;5036254;28;20692;-76
2023/06/01 07:58:35;;;;;;;9.13;4.85;;;19.60;99.90;;;;;;5052608;28;20203;-76
2023/06/01 08:03:33;;;;;;;8.13;4.75;;;20.50;99.90;;;;;;5033251;28;20216;-70
2023/06/01 08:06:04;;;;;;;7.38;4.65;;;21.70;99.90;;;;;;5038734;28;20817;-72
2023/06/01 08:08:30;;;;;;;10.88;5.38;;;22.00;99.90;;;;;;5038549;28;20234;-72
2023/06/01 08:10:56;;;;;;;13.93;5.75;;;22.20;99.90;;;;;;5039397;28;20674;-72
2023/06/01 08:13:22;;;;;;;9.23;5.32;;;22.10;99.90;;;;;;5038128;28;20599;-72
2023/06/01 08:15:48;;;;;;;8.68;4.88;;;22.80;99.90;;;;;;5040427;28;20263;-72
2023/06/01 08:18:14;;;;;;;7.53;4.43;;;22.10;99.90;;;;;;5037757;28;20589;-72
2023/06/01 08:20:41;;;;;;;8.10;5.10;;;22.30;99.90;;;;;;5034712;28;20176;-72
2023/06/01 08:23:07;;;;;;;7.15;4.80;;;21.70;99.90;;;;;;5029951;28;20217;-72
2023/06/01 08:25:33;;;;;;;7.97;4.97;;;20.10;99.90;;;;;;5037270;28;20278;-71
2023/06/01 08:27:59;;;;;;;6.25;5.00;;;20.10;99.90;;;;;;5040817;28;20204;-72
2023/06/01 08:30:27;;;;;;;9.27;4.95;;;20.50;99.90;;;;;;5038673;28;20219;-71
2023/06/01 08:32:53;;;;;;;8.52;4.55;;;21.60;99.90;;;;;;5038170;28;20192;-72
2023/06/01 08:35:19;;;;;;;8.93;4.40;;;20.80;99.90;;;;;;5032517;28;20319;-71
2023/06/01 08:37:47;;;;;;;9.70;4.50;;;20.90;99.90;;;;;;5036085;28;20241;-72
2023/06/01 08:40:13;;;;;;;11.35;6.05;;;20.10;99.90;;;;;;5038265;28;20206;-72
2023/06/01 08:42:45;;;;;;;9.30;5.80;;;20.80;99.90;;;;;;5032974;28;20592;-72
2023/06/01 08:45:12;;;;;;;8.68;4.72;;;21.10;99.90;;;;;;5035459;28;20181;-73
2023/06/01 08:47:38;;;;;;;7.72;4.43;;;21.90;99.90;;;;;;5039585;28;20214;-72
2023/06/01 08:50:05;;;;;;;7.75;4.15;;;22.40;99.90;;;;;;5036888;28;20196;-72
2023/06/01 08:52:33;;;;;;;11.65;4.22;;;22.30;99.90;;;;;;5038384;28;20215;-72
2023/06/01 08:55:01;;;;;;;7.28;4.15;;;22.10;99.90;;;;;;5039016;28;20211;-73
2023/06/01 08:57:29;;;;;;;6.63;3.97;;;22.70;99.90;;;;;;5030279;28;20215;-72
2023/06/01 08:59:55;;;;;;;9.35;4.93;;;22.30;99.90;;;;;;5041832;28;20183;-80
2023/06/01 09:02:25;;;;;;;11.15;4.88;;;22.10;99.90;;;;;;5040732;28;20718;-72
2023/06/01 09:04:52;;;;;;;8.30;4.28;;;22.20;99.90;;;;;;5037246;28;20216;-72
2023/06/01 09:07:18;;;;;;;9.38;4.32;;;21.80;99.90;;;;;;5037888;28;20295;-72
2023/06/01 09:09:45;;;;;;;9.63;4.97;;;21.00;99.90;;;;;;5036243;28;20201;-71
2023/06/01 09:12:29;;;;;;;11.52;4.50;;;20.70;99.90;;;;;;5038035;28;20196;-72
2023/06/01 09:15:06;;;;;;;8.48;4.80;;;20.20;99.90;;;;;;5034656;28;20200;-72
2023/06/01 09:17:33;;;;;;;8.50;4.93;;;20.70;99.90;;;;;;5036950;28;20215;-72
2023/06/01 09:19:58;;;;;;;9.25;4.75;;;20.90;99.90;;;;;;5037679;28;20208;-71
2023/06/01 09:22:24;;;;;;;10.18;5.18;;;19.50;99.90;;;;;;5043059;28;20588;-72
2023/06/01 09:24:59;;;;;;;11.98;4.88;;;19.90;99.90;;;;;;5039811;28;20220;-72
2023/06/01 09:27:26;;;;;;;10.82;5.00;;;20.70;99.90;;;;;;5035987;28;20203;-72
2023/06/01 09:29:59;;;;;;;8.95;5.70;;;21.20;99.90;;;;;;5042438;28;20187;-72
2023/06/01 09:32:24;;;;;;;9.65;5.72;;;20.50;99.90;;;;;;5037686;28;20749;-71
2023/06/01 09:34:50;;;;;;;10.10;5.72;;;20.90;99.90;;;;;;5039864;28;20294;-72
2023/06/01 09:37:16;;;;;;;9.55;5.47;;;20.90;99.90;;;;;;5035165;28;20200;-72
2023/06/01 09:39:43;;;;;;;9.23;5.10;;;20.50;99.90;;;;;;5038668;28;20204;-72
2023/06/01 09:42:09;;;;;;;13.38;6.78;;;20.10;99.90;;;;;;5040450;28;20211;-72
2023/06/01 09:44:40;;;;;;;10.50;6.20;;;19.80;99.90;;;;;;5034231;28;20199;-71
2023/06/01 09:47:12;;;;;;;10.98;6.75;;;20.00;99.90;;;;;;5040756;28;20196;-72
2023/06/01 09:49:42;;;;;;;14.57;7.05;;;20.40;99.90;;;;;;5032712;28;20342;-72
2023/06/01 09:52:08;;;;;;;9.65;6.60;;;20.70;99.90;;;;;;5036268;28;20211;-72
2023/06/01 09:54:39;;;;;;;13.98;8.52;;;21.10;99.90;;;;;;5036967;28;20212;-71
2023/06/01 09:57:06;;;;;;;9.18;7.00;;;20.60;99.90;;;;;;5032872;28;20168;-73
2023/06/01 09:59:43;;;;;;;14.00;8.25;;;20.70;99.90;;;;;;5038062;28;20175;-71
2023/06/01 10:02:14;;;;;;;9.63;7.60;;;20.60;99.90;;;;;;5038622;28;20212;-73
2023/06/01 10:04:41;;;;;;;18.02;9.35;;;20.90;99.90;;;;;;5039836;28;20224;-73
2023/06/01 10:07:08;;;;;;;12.50;9.05;;;20.30;99.90;;;;;;5040396;28;20230;-73
2023/06/01 10:09:38;;;;;;;12.90;8.10;;;19.90;99.90;;;;;;5040806;28;20633;-73
2023/06/01 10:12:04;;;;;;;14.27;7.75;;;20.70;99.90;;;;;;5041832;28;20219;-73
2023/06/01 10:14:31;;;;;;;17.25;7.78;;;20.90;99.90;;;;;;5039366;28;20176;-73
2023/06/01 10:16:58;;;;;;;17.52;8.27;;;21.40;99.90;;;;;;5037376;28;20216;-72
2023/06/01 10:19:23;;;;;;;11.52;8.48;;;21.90;99.90;;;;;;5038984;28;20199;-72
2023/06/01 10:21:50;;;;;;;13.23;8.43;;;22.30;99.90;;;;;;5036489;28;20209;-73
2023/06/01 10:24:18;;;;;;;11.73;8.27;;;22.00;99.90;;;;;;5031997;28;20639;-73
2023/06/01 10:27:05;;;;;;;13.35;7.72;;;21.80;99.90;;;;;;5031878;28;20180;-73
2023/06/01 10:29:32;;;;;;;10.55;8.50;;;22.10;99.90;;;;;;5041298;28;20286;-73
2023/06/01 10:31:57;;;;;;;12.05;8.40;;;22.10;99.90;;;;;;5039901;28;20718;-72
2023/06/01 10:34:36;;;;;;;13.63;9.05;;;22.30;99.90;;;;;;5037910;28;20219;-71
2023/06/01 10:37:02;;;;;;;14.02;9.52;;;22.60;99.90;;;;;;5034136;28;20203;-72
2023/06/01 10:39:32;;;;;;;15.07;9.27;;;22.10;99.90;;;;;;5040246;28;20203;-73
2023/06/01 10:42:12;;;;;;;13.43;9.77;;;21.80;99.90;;;;;;5033582;28;20271;-73
2023/06/01 10:44:44;;;;;;;13.43;9.10;;;21.80;99.90;;;;;;5036645;28;20593;-71
2023/06/01 10:47:12;;;;;;;12.52;9.25;;;22.30;99.90;;;;;;5041538;28;20204;-72
2023/06/01 10:49:47;;;;;;;14.57;9.73;;;21.30;99.90;;;;;;5040318;28;20204;-71
2023/06/01 10:52:27;;;;;;;11.40;9.38;;;20.90;99.90;;;;;;5038453;28;20219;-71
2023/06/01 10:55:16;;;;;;;16.75;9.52;;;21.30;99.90;;;;;;5025493;28;20230;-72
2023/06/01 10:57:45;;;;;;;14.07;9.38;;;21.30;99.90;;;;;;5035230;28;20238;-72
2023/06/01 11:00:19;;;;;;;12.38;8.68;;;21.30;99.90;;;;;;5037380;28;20263;-72
2023/06/01 11:02:59;;;;;;;11.75;8.60;;;21.70;99.90;;;;;;5035429;28;20608;-72
2023/06/01 11:05:47;;;;;;;12.38;9.25;;;21.50;99.90;;;;;;5032237;28;20295;-70
2023/06/01 11:08:21;;;;;;;14.73;8.80;;;21.30;99.90;;;;;;5030411;28;20230;-72
2023/06/01 11:10:54;;;;;;;11.77;7.93;;;21.40;99.90;;;;;;5034333;28;20219;-72
2023/06/01 11:13:30;;;;;;;14.82;9.48;;;21.60;99.90;;;;;;5038985;28;20211;-71
2023/06/01 11:16:09;;;;;;;15.18;8.77;;;21.90;99.90;;;;;;5038296;28;20729;-71
2023/06/01 11:18:41;;;;;;;10.90;7.68;;;21.50;99.90;;;;;;5018731;28;20223;-71
2023/06/01 11:21:12;;;;;;;17.50;9.57;;;21.60;99.90;;;;;;5037539;28;20176;-72
2023/06/01 11:23:38;;;;;;;11.95;8.55;;;21.70;99.90;;;;;;5038676;28;20199;-71
2023/06/01 11:26:06;;;;;;;9.82;8.50;;;21.60;99.90;;;;;;5039490;28;20298;-72
2023/06/01 11:28:32;;;;;;;11.60;8.23;;;21.30;99.90;;;;;;5038850;28;20297;-71
2023/06/01 11:31:00;;;;;;;14.32;8.73;;;21.40;99.90;;;;;;5037658;28;20261;-72
2023/06/01 11:33:28;;;;;;;8.73;7.80;;;21.20;99.90;;;;;;5037484;28;20216;-71
2023/06/01 11:36:04;;;;;;;13.93;11.38;;;21.50;99.90;;;;;;5034750;28;20183;-72
2023/06/01 11:38:35;;;;;;;13.38;9.07;;;21.90;99.90;;;;;;5041506;28;20199;-71
2023/06/01 11:41:01;;;;;;;13.98;8.35;;;21.80;99.90;;;;;;5035284;28;20208;-72
2023/06/01 11:43:31;;;;;;;12.05;8.60;;;21.80;99.90;;;;;;5033629;28;20632;-69
2023/06/01 11:46:05;;;;;;;12.73;7.97;;;21.80;99.90;;;;;;5035647;28;20636;-72
2023/06/01 11:48:31;;;;;;;14.30;7.90;;;22.10;99.90;;;;;;5036879;28;20630;-72
2023/06/01 11:50:59;;;;;;;16.75;7.68;;;21.90;99.90;;;;;;5038890;28;20180;-70
2023/06/01 11:53:25;;;;;;;8.88;7.60;;;21.80;99.90;;;;;;5035102;28;20223;-72
2023/06/01 11:55:52;;;;;;;12.07;7.70;;;21.10;99.90;;;;;;5034473;28;20211;-73
2023/06/01 11:58:28;;;;;;;12.90;7.57;;;21.50;99.90;;;;;;5040816;28;20657;-74
2023/06/01 12:00:55;;;;;;;12.57;7.78;;;21.80;99.90;;;;;;5040236;28;20207;-76
2023/06/01 12:03:24;;;;;;;13.73;7.60;;;21.90;99.90;;;;;;5036259;28;20285;-76
2023/06/01 12:05:50;;;;;;;11.95;7.63;;;21.70;99.90;;;;;;5027985;28;20613;-73
2023/06/01 12:08:18;;;;;;;37.13;20.83;;;21.90;99.90;;;;;;5031722;28;20216;-73
2023/06/01 12:10:48;;;;;;;22.27;14.10;;;22.00;99.90;;;;;;5026452;28;20254;-72
2023/06/01 12:13:15;;;;;;;12.65;8.63;;;21.90;99.90;;;;;;5028765;28;20215;-73
2023/06/01 12:15:41;;;;;;;16.42;10.05;;;22.20;99.90;;;;;;5024709;28;20204;-73
2023/06/01 12:18:08;;;;;;;10.13;7.28;;;22.10;99.90;;;;;;5031538;28;20230;-73
2023/06/01 12:20:35;;;;;;;16.75;9.20;;;21.70;99.90;;;;;;5026234;28;20200;-73
2023/06/01 12:23:12;;;;;;;14.10;7.40;;;21.70;99.90;;;;;;5033084;28;20903;-73
2023/06/01 12:25:51;;;;;;;11.48;7.40;;;21.60;99.90;;;;;;5010094;28;20287;-73
2023/06/01 12:28:19;;;;;;;10.50;6.72;;;21.80;99.90;;;;;;5032863;28;20215;-74
2023/06/01 12:30:46;;;;;;;11.75;6.72;;;21.90;99.90;;;;;;5033461;28;20212;-74
2023/06/01 12:33:34;;;;;;;11.52;7.28;;;22.00;99.90;;;;;;5035681;28;20195;-74
2023/06/01 12:36:00;;;;;;;10.93;6.35;;;22.10;99.90;;;;;;5032664;28;20570;-74
2023/06/01 12:38:26;;;;;;;11.82;6.40;;;22.10;99.90;;;;;;5036729;28;20215;-74
2023/06/01 12:41:08;;;;;;;11.23;7.60;;;22.10;99.90;;;;;;5035526;28;20319;-75
2023/06/01 12:44:01;;;;;;;9.88;6.50;;;21.80;99.90;;;;;;5030050;28;20266;-73
2023/06/01 12:46:28;;;;;;;10.93;6.18;;;21.90;99.90;;;;;;5032403;28;20211;-72
2023/06/01 12:49:10;;;;;;;11.25;6.22;;;21.60;99.90;;;;;;5033398;28;20207;-72
2023/06/01 12:51:36;;;;;;;10.88;6.60;;;21.90;99.90;;;;;;5033445;28;20591;-73